createdAt,value
2018-07-02T00:00:12.124Z,1.60
2018-07-02T00:02:46.134Z,1.57
2018-07-02T00:05:20.328Z,1.73
2018-07-02T00:07:51.306Z,1.70
2018-07-02T00:10:24.698Z,1.77
2018-07-02T00:12:56.720Z,1.40
2018-07-02T00:15:30.072Z,1.50
2018-07-02T00:18:03.714Z,1.40
2018-07-02T00:20:38.207Z,1.60
2018-07-02T00:23:12.537Z,1.33
2018-07-02T00:25:47.153Z,1.67
2018-07-02T00:28:19.621Z,1.93
2018-07-02T00:30:53.913Z,1.63
2018-07-02T00:33:27.915Z,1.63
2018-07-02T00:36:02.473Z,1.63
2018-07-02T00:38:36.795Z,1.80
2018-07-02T00:41:11.158Z,1.67
2018-07-02T00:43:45.750Z,1.47
2018-07-02T00:46:20.281Z,1.40
2018-07-02T00:48:54.673Z,1.60
2018-07-02T00:51:29.168Z,1.50
2018-07-02T00:54:04.653Z,1.67
2018-07-02T00:56:38.822Z,1.23
2018-07-02T00:59:13.263Z,1.47
2018-07-02T01:01:47.784Z,1.50
2018-07-02T01:04:21.956Z,1.53
2018-07-02T01:06:57.193Z,2.23
2018-07-02T01:09:31.497Z,1.47
2018-07-02T01:12:05.529Z,1.57
2018-07-02T01:14:40.405Z,1.60
2018-07-02T01:17:14.805Z,1.63
2018-07-02T01:19:49.289Z,1.90
2018-07-02T01:22:23.548Z,1.70
2018-07-02T01:24:57.615Z,1.40
2018-07-02T01:27:35.725Z,1.60
2018-07-02T01:30:07.396Z,1.27
2018-07-02T01:32:41.666Z,1.80
2018-07-02T01:35:13.160Z,1.00
2018-07-02T01:37:47.262Z,1.87
2018-07-02T01:40:21.704Z,1.87
2018-07-02T01:42:54.641Z,1.50
2018-07-02T01:45:25.621Z,1.43
2018-07-02T01:47:56.943Z,1.83
2018-07-02T01:50:27.685Z,2.10
2018-07-02T01:52:58.835Z,1.70
2018-07-02T01:55:30.175Z,1.80
2018-07-02T01:58:01.305Z,1.60
2018-07-02T02:00:32.758Z,1.63
2018-07-02T02:03:04.261Z,1.60
2018-07-02T02:05:35.573Z,1.50
2018-07-02T02:08:07.889Z,1.83
2018-07-02T02:10:41.049Z,1.40
2018-07-02T02:13:12.345Z,1.87
2018-07-02T02:15:43.791Z,1.50
2018-07-02T02:18:15.150Z,1.40
2018-07-02T02:20:46.520Z,2.03
2018-07-02T02:23:17.881Z,1.50
2018-07-02T02:25:49.241Z,1.90
2018-07-02T02:28:20.554Z,2.00
2018-07-02T02:30:52.012Z,1.73
2018-07-02T02:33:23.277Z,1.63
2018-07-02T02:35:54.591Z,1.43
2018-07-02T02:38:25.958Z,1.40
2018-07-02T02:40:57.225Z,1.77
2018-07-02T02:43:29.908Z,1.47
2018-07-02T02:46:01.196Z,1.90
2018-07-02T02:48:32.514Z,1.47
2018-07-02T02:51:03.793Z,1.23
2018-07-02T02:53:35.204Z,1.77
2018-07-02T02:56:06.903Z,1.83
2018-07-02T02:58:38.264Z,1.40
2018-07-02T03:01:09.704Z,1.70
2018-07-02T03:03:41.088Z,1.63
2018-07-02T03:06:12.663Z,1.33
2018-07-02T03:08:43.924Z,1.40
2018-07-02T03:11:15.283Z,1.57
2018-07-02T03:13:46.620Z,1.77
2018-07-02T03:16:18.161Z,1.90
2018-07-02T03:18:49.454Z,1.53
2018-07-02T03:21:20.474Z,2.10
2018-07-02T03:23:52.102Z,1.80
2018-07-02T03:26:23.448Z,1.43
2018-07-02T03:28:58.548Z,1.87
2018-07-02T03:31:30.046Z,1.80
2018-07-02T03:34:01.292Z,1.70
2018-07-02T03:36:32.611Z,1.90
2018-07-02T03:39:04.685Z,1.97
2018-07-02T03:41:36.204Z,1.70
2018-07-02T03:44:07.841Z,1.87
2018-07-02T03:46:39.221Z,1.70
2018-07-02T03:49:12.524Z,1.87
2018-07-02T03:51:43.855Z,1.40
2018-07-02T03:54:15.378Z,1.57
2018-07-02T03:56:46.714Z,1.93
2018-07-02T03:59:18.032Z,1.73
2018-07-02T04:01:52.433Z,1.73
2018-07-02T04:04:24.186Z,2.23
2018-07-02T04:06:55.465Z,1.80
2018-07-02T04:09:26.813Z,1.37
2018-07-02T04:12:01.745Z,2.10
2018-07-02T04:14:32.712Z,1.70
2018-07-02T04:17:04.099Z,1.90
2018-07-02T04:19:36.221Z,1.60
2018-07-02T04:22:07.551Z,1.93
2018-07-02T04:24:38.889Z,1.33
2018-07-02T04:27:10.376Z,1.70
2018-07-02T04:29:41.738Z,2.27
2018-07-02T04:32:14.030Z,1.73
2018-07-02T04:34:45.140Z,1.43
2018-07-02T04:37:16.434Z,1.80
2018-07-02T04:39:47.818Z,1.57
2018-07-02T04:42:18.905Z,2.03
2018-07-02T04:44:50.222Z,1.83
2018-07-02T04:47:21.563Z,1.63
2018-07-02T04:49:52.882Z,1.60
2018-07-02T04:52:24.480Z,2.20
2018-07-02T04:54:55.790Z,2.17
2018-07-02T04:57:27.177Z,1.80
2018-07-02T04:59:58.466Z,1.93
2018-07-02T05:02:29.759Z,1.73
2018-07-02T05:05:00.821Z,1.47
2018-07-02T05:07:31.915Z,1.60
2018-07-02T05:10:02.846Z,1.30
2018-07-02T05:12:33.805Z,1.40
2018-07-02T05:15:04.952Z,1.60
2018-07-02T05:17:36.084Z,1.30
2018-07-02T05:20:07.183Z,1.87
2018-07-02T05:22:38.203Z,1.63
2018-07-02T05:25:09.342Z,1.60
2018-07-02T05:27:40.125Z,1.50
2018-07-02T05:30:11.213Z,1.23
2018-07-02T05:32:42.305Z,1.90
2018-07-02T05:35:13.410Z,1.73
2018-07-02T05:37:44.575Z,2.00
2018-07-02T05:40:15.714Z,1.20
2018-07-02T05:42:46.716Z,1.63
2018-07-02T05:45:17.733Z,1.40
2018-07-02T05:47:48.733Z,1.37
2018-07-02T05:50:20.297Z,1.13
2018-07-02T05:52:51.309Z,2.10
2018-07-02T05:55:22.437Z,1.80
2018-07-02T05:57:53.841Z,1.73
2018-07-02T06:00:25.499Z,1.73
2018-07-02T06:02:56.623Z,1.40
2018-07-02T06:05:27.492Z,1.33
2018-07-02T06:07:58.645Z,1.40
2018-07-02T06:10:29.900Z,1.57
2018-07-02T06:13:00.965Z,1.30
2018-07-02T06:15:32.124Z,1.10
2018-07-02T06:18:03.236Z,1.47
2018-07-02T06:20:34.329Z,1.20
2018-07-02T06:23:05.937Z,1.30
2018-07-02T06:25:37.075Z,1.37
2018-07-02T06:28:08.183Z,1.13
2018-07-02T06:30:39.576Z,1.47
2018-07-02T06:33:10.728Z,1.10
2018-07-02T06:35:41.809Z,1.47
2018-07-02T06:38:12.621Z,1.10
2018-07-02T06:40:43.652Z,1.20
2018-07-02T06:43:14.756Z,1.17
2018-07-02T06:45:45.549Z,0.90
2018-07-02T06:48:16.653Z,1.87
2018-07-02T06:50:47.748Z,2.10
2018-07-02T06:53:18.809Z,0.80
2018-07-02T06:55:49.597Z,1.00
2018-07-02T06:58:21.065Z,0.97
2018-07-02T07:00:52.141Z,0.80
2018-07-02T07:03:22.970Z,0.80
2018-07-02T07:05:54.039Z,0.80
2018-07-02T07:08:25.010Z,0.90
2018-07-02T07:10:56.037Z,1.07
2018-07-02T07:13:27.457Z,1.20
2018-07-02T07:15:58.546Z,0.80
2018-07-02T07:18:30.158Z,0.93
2018-07-02T07:21:01.557Z,0.90
2018-07-02T07:23:32.643Z,1.20
2018-07-02T07:26:03.742Z,0.97
2018-07-02T07:28:35.073Z,0.90
2018-07-02T07:31:06.358Z,1.13
2018-07-02T07:33:37.635Z,0.90
2018-07-02T07:36:09.075Z,0.73
2018-07-02T07:38:40.179Z,0.83
2018-07-02T07:41:14.636Z,1.17
2018-07-02T07:43:45.270Z,0.80
2018-07-02T07:46:16.370Z,0.70
2018-07-02T07:48:47.370Z,0.70
2018-07-02T07:51:18.787Z,0.77
2018-07-02T07:53:49.895Z,0.80
2018-07-02T07:56:21.300Z,0.77
2018-07-02T07:58:52.357Z,1.13
2018-07-02T08:01:23.399Z,1.00
2018-07-02T08:03:54.650Z,0.80
2018-07-02T08:06:25.906Z,0.80
2018-07-02T08:08:56.896Z,0.80
2018-07-02T08:11:28.017Z,0.90
2018-07-02T08:13:59.071Z,1.20
2018-07-02T08:16:30.220Z,0.73
2018-07-02T08:19:01.277Z,0.87
2018-07-02T08:21:32.565Z,0.57
2018-07-02T08:24:04.018Z,0.70
2018-07-02T08:26:35.117Z,0.50
2018-07-02T08:29:06.490Z,0.83
2018-07-02T08:31:37.544Z,0.87
2018-07-02T08:34:08.623Z,0.63
2018-07-02T08:36:39.656Z,0.50
2018-07-02T08:39:12.264Z,0.80
2018-07-02T08:41:43.464Z,0.80
2018-07-02T08:44:14.607Z,0.87
2018-07-02T08:46:45.764Z,0.60
2018-07-02T08:49:16.928Z,0.70
2018-07-02T08:51:48.031Z,1.13
2018-07-02T08:54:19.070Z,0.73
2018-07-02T08:56:50.223Z,0.70
2018-07-02T08:59:21.253Z,0.87
2018-07-02T09:01:52.304Z,0.93
2018-07-02T09:04:23.293Z,0.70
2018-07-02T09:06:54.482Z,0.50
2018-07-02T09:09:25.647Z,0.67
2018-07-02T09:11:56.705Z,0.50
2018-07-02T09:14:27.752Z,0.77
2018-07-02T09:17:07.643Z,0.70
2018-07-02T09:19:38.719Z,0.80
2018-07-02T09:22:09.719Z,0.90
2018-07-02T09:24:40.958Z,0.40
2018-07-02T09:27:11.960Z,0.43
2018-07-02T09:29:42.657Z,1.13
2018-07-02T09:32:13.571Z,1.03
2018-07-02T09:34:44.733Z,0.50
2018-07-02T09:37:15.874Z,0.43
2018-07-02T09:39:46.869Z,1.03
2018-07-02T09:42:17.900Z,0.50
2018-07-02T09:44:48.930Z,0.43
2018-07-02T09:47:19.967Z,0.40
2018-07-02T09:49:51.013Z,0.60
2018-07-02T09:52:22.299Z,0.73
2018-07-02T09:54:53.288Z,0.70
2018-07-02T09:57:24.653Z,0.70
2018-07-02T09:59:55.733Z,0.70
2018-07-02T10:02:26.846Z,0.50
2018-07-02T10:04:57.812Z,0.60
2018-07-02T10:07:28.852Z,0.50
2018-07-02T10:09:59.828Z,0.60
2018-07-02T10:12:30.897Z,0.50
2018-07-02T10:15:02.121Z,0.60
2018-07-02T10:17:33.508Z,0.60
2018-07-02T10:20:05.222Z,0.50
2018-07-02T10:22:36.368Z,0.63
2018-07-02T10:25:09.590Z,0.57
2018-07-02T10:27:40.596Z,0.53
2018-07-02T10:30:42.490Z,0.40
2018-07-02T10:33:16.677Z,0.93
2018-07-02T10:35:47.644Z,0.70
2018-07-02T10:38:18.649Z,0.50
2018-07-02T10:40:49.669Z,0.70
2018-07-02T10:43:20.960Z,0.73
2018-07-02T10:45:52.004Z,0.67
2018-07-02T10:48:23.107Z,0.70
2018-07-02T10:50:54.457Z,0.60
2018-07-02T10:53:25.490Z,0.50
2018-07-02T10:55:56.582Z,1.23
2018-07-02T10:58:27.593Z,0.60
2018-07-02T11:00:58.993Z,0.60
2018-07-02T11:03:30.003Z,0.50
2018-07-02T11:06:01.446Z,0.60
2018-07-02T11:08:32.545Z,0.60
2018-07-02T11:11:03.711Z,0.93
2018-07-02T11:13:34.652Z,0.80
2018-07-02T11:16:05.696Z,0.80
2018-07-02T11:18:36.770Z,0.40
2018-07-02T11:21:07.885Z,0.80
2018-07-02T11:23:38.669Z,0.67
2018-07-02T11:26:09.740Z,0.80
2018-07-02T11:28:41.208Z,0.50
2018-07-02T11:31:12.220Z,0.60
2018-07-02T11:33:43.486Z,0.70
2018-07-02T11:36:14.957Z,0.70
2018-07-02T11:38:46.320Z,0.53
2018-07-02T11:41:17.488Z,0.70
2018-07-02T11:43:48.686Z,0.93
2018-07-02T11:46:20.063Z,0.80
2018-07-02T11:48:56.153Z,1.13
2018-07-02T11:51:27.248Z,0.57
2018-07-02T11:53:58.298Z,0.67
2018-07-02T11:56:29.674Z,0.80
2018-07-02T11:59:00.802Z,0.77
2018-07-02T12:01:31.825Z,0.53
2018-07-02T12:04:02.835Z,0.83
2018-07-02T12:06:33.636Z,0.90
2018-07-02T12:09:06.694Z,0.70
2018-07-02T12:11:37.772Z,0.73
2018-07-02T12:14:08.947Z,0.80
2018-07-02T12:16:39.931Z,0.57
2018-07-02T12:19:11.180Z,0.53
2018-07-02T12:21:42.253Z,0.80
2018-07-02T12:24:14.095Z,0.63
2018-07-02T12:26:45.198Z,0.77
2018-07-02T12:29:16.534Z,0.60
2018-07-02T12:31:47.579Z,1.07
2018-07-02T12:34:18.743Z,0.57
2018-07-02T12:36:49.498Z,0.60
2018-07-02T12:39:20.504Z,0.90
2018-07-02T12:41:51.648Z,0.57
2018-07-02T12:57:47.910Z,0.80
2018-07-02T13:00:19.460Z,0.80
2018-07-02T13:02:50.983Z,0.80
2018-07-02T13:05:22.595Z,1.00
2018-07-02T13:07:54.200Z,0.60
2018-07-02T13:10:25.521Z,0.80
2018-07-02T13:12:57.063Z,1.30
2018-07-02T13:15:28.573Z,0.90
2018-07-02T13:18:00.192Z,0.50
2018-07-02T13:20:31.674Z,0.60
2018-07-02T13:23:03.386Z,0.60
2018-07-02T13:25:34.912Z,0.70
2018-07-02T13:28:06.127Z,0.63
2018-07-02T13:30:37.797Z,0.50
2018-07-02T13:33:09.598Z,0.67
2018-07-02T13:35:40.827Z,0.70
2018-07-02T13:38:11.935Z,0.97
2018-07-02T13:40:43.219Z,0.70
2018-07-02T13:43:14.306Z,0.80
2018-07-02T13:45:45.385Z,0.93
2018-07-02T13:48:16.473Z,0.60
2018-07-02T13:50:47.446Z,0.70
2018-07-02T13:53:18.775Z,0.80
2018-07-02T13:55:49.812Z,0.83
2018-07-02T13:58:20.787Z,0.70
2018-07-02T14:00:52.113Z,0.97
2018-07-02T14:03:23.078Z,0.50
2018-07-02T14:05:54.129Z,1.00
2018-07-02T14:08:25.203Z,1.07
2018-07-02T14:10:56.195Z,0.60
2018-07-02T14:13:27.174Z,0.70
2018-07-02T14:15:58.162Z,0.73
2018-07-02T14:18:29.160Z,0.57
2018-07-02T14:21:00.234Z,0.60
2018-07-02T14:23:31.239Z,0.70
2018-07-02T14:26:01.952Z,0.97
2018-07-02T14:28:32.931Z,0.70
2018-07-02T14:31:04.271Z,1.10
2018-07-02T14:33:35.296Z,0.50
2018-07-02T14:36:06.436Z,0.43
2018-07-02T14:38:37.453Z,0.70
2018-07-02T14:41:08.458Z,0.90
2018-07-02T14:43:39.819Z,0.90
2018-07-02T14:46:11.004Z,1.43
2018-07-02T14:48:41.969Z,0.70
2018-07-02T14:51:14.754Z,0.70
2018-07-02T14:53:45.774Z,0.53
2018-07-02T14:56:17.080Z,0.93
2018-07-02T14:58:48.113Z,0.60
2018-07-02T15:01:18.864Z,0.60
2018-07-02T15:03:51.065Z,0.70
2018-07-02T15:06:22.110Z,1.20
2018-07-02T15:08:53.347Z,0.73
2018-07-02T15:11:24.818Z,1.00
2018-07-02T15:13:55.881Z,0.70
2018-07-02T15:16:26.887Z,0.57
2018-07-02T15:18:57.879Z,0.90
2018-07-02T15:21:29.249Z,0.53
2018-07-02T15:24:00.348Z,0.83
2018-07-02T15:29:17.530Z,0.60
2018-07-02T15:31:50.892Z,0.93
2018-07-02T15:34:22.059Z,1.83
2018-07-02T15:36:53.615Z,0.67
2018-07-02T15:39:24.912Z,0.70
2018-07-02T15:41:56.250Z,0.60
2018-07-02T15:44:27.556Z,0.70
2018-07-02T15:46:59.133Z,0.70
2018-07-02T15:49:30.553Z,0.73
2018-07-02T15:52:01.608Z,1.00
2018-07-02T15:54:32.700Z,0.90
2018-07-02T15:57:04.059Z,0.90
2018-07-02T15:59:35.309Z,1.37
2018-07-02T16:02:06.306Z,1.37
2018-07-02T16:04:37.303Z,3.30
2018-07-02T16:07:09.107Z,1.57
2018-07-02T16:09:40.565Z,0.90
2018-07-02T16:12:11.581Z,0.53
2018-07-02T16:14:42.586Z,0.80
2018-07-02T16:17:14.325Z,0.90
2018-07-02T16:19:45.361Z,0.57
2018-07-02T16:22:16.367Z,3.10
2018-07-02T16:24:47.729Z,0.90
2018-07-02T16:27:19.008Z,1.10
2018-07-02T16:29:49.746Z,0.80
2018-07-02T16:32:20.688Z,0.80
2018-07-02T16:34:51.732Z,1.10
2018-07-02T16:37:22.691Z,0.90
2018-07-02T16:39:53.659Z,1.03
2018-07-02T16:42:24.568Z,0.90
2018-07-02T16:44:55.700Z,1.03
2018-07-02T16:47:26.785Z,1.90
2018-07-02T16:49:58.244Z,0.90
2018-07-02T16:52:29.459Z,3.27
2018-07-02T16:55:00.649Z,1.10
2018-07-02T16:57:32.435Z,1.83
2018-07-02T17:00:03.868Z,3.10
2018-07-02T17:02:35.245Z,1.63
2018-07-02T17:05:06.200Z,1.00
2018-07-02T17:07:37.252Z,1.00
2018-07-02T17:10:09.176Z,0.70
2018-07-02T17:12:40.238Z,0.60
2018-07-02T17:15:11.895Z,0.53
2018-07-02T17:17:43.733Z,0.83
2018-07-02T17:20:15.687Z,0.93
2018-07-02T17:24:49.112Z,0.70
2018-07-02T17:27:37.508Z,0.83
2018-07-02T17:30:10.473Z,1.10
2018-07-02T17:32:41.587Z,0.73
2018-07-02T17:35:12.810Z,2.13
2018-07-02T17:37:44.258Z,0.90
2018-07-02T17:40:15.385Z,1.00
2018-07-02T17:42:46.156Z,0.60
2018-07-02T17:45:17.124Z,0.63
2018-07-02T17:47:48.080Z,0.50
2018-07-02T17:50:19.108Z,0.50
2018-07-02T17:52:50.297Z,0.77
2018-07-02T17:55:21.708Z,0.97
2018-07-02T17:57:52.693Z,0.60
2018-07-02T18:00:23.700Z,1.00
2018-07-02T18:02:54.733Z,0.57
2018-07-02T18:05:25.802Z,1.00
2018-07-02T18:07:56.884Z,0.50
2018-07-02T18:10:27.878Z,0.63
2018-07-02T18:12:58.917Z,0.70
2018-07-02T18:15:29.920Z,0.83
2018-07-02T18:18:00.952Z,0.60
2018-07-02T18:20:32.115Z,1.50
2018-07-02T18:23:03.374Z,0.87
2018-07-02T18:25:34.589Z,0.87
2018-07-02T18:28:05.359Z,0.70
2018-07-02T18:30:36.458Z,0.87
2018-07-02T18:33:08.516Z,0.80
2018-07-02T18:35:39.896Z,0.90
2018-07-02T18:38:11.234Z,1.20
2018-07-02T18:40:42.829Z,1.33
2018-07-02T18:43:16.525Z,2.07
2018-07-02T18:45:47.675Z,1.97
2018-07-02T18:48:18.812Z,1.10
2018-07-02T18:50:49.811Z,1.10
2018-07-02T18:53:20.810Z,1.30
2018-07-02T18:55:52.773Z,1.97
2018-07-02T18:58:23.765Z,3.03
2018-07-02T19:00:54.998Z,2.70
2018-07-02T19:03:26.122Z,4.03
2018-07-02T19:05:57.435Z,4.43
2018-07-02T19:08:28.661Z,1.43
2018-07-02T19:10:59.798Z,0.77
2018-07-02T19:13:30.872Z,1.77
2018-07-02T19:16:01.635Z,1.00
2018-07-02T19:18:32.553Z,1.50
2018-07-02T19:21:03.610Z,0.90
2018-07-02T19:23:35.585Z,1.43
2018-07-02T19:26:07.075Z,0.70
2018-07-02T19:28:38.636Z,0.80
2018-07-02T19:31:09.894Z,1.17
2018-07-02T19:33:41.163Z,1.30
2018-07-02T19:36:12.570Z,0.60
2018-07-02T19:39:15.232Z,0.87
2018-07-02T19:41:46.512Z,1.00
2018-07-02T19:44:17.870Z,0.97
2018-07-02T19:46:49.474Z,0.60
2018-07-02T19:49:20.656Z,0.77
2018-07-02T19:52:54.593Z,0.80
2018-07-02T19:55:26.050Z,1.20
2018-07-02T19:57:57.218Z,0.70
2018-07-02T20:00:28.273Z,1.00
2018-07-02T20:03:05.429Z,0.90
2018-07-02T20:05:36.634Z,0.80
2018-07-02T20:08:07.791Z,0.80
2018-07-02T20:10:39.992Z,0.80
2018-07-02T20:13:11.909Z,0.90
2018-07-02T20:15:48.918Z,0.70
2018-07-02T20:18:25.769Z,0.70
2018-07-02T20:21:08.596Z,0.77
2018-07-02T20:23:41.739Z,0.93
2018-07-02T20:26:13.126Z,0.90
2018-07-02T20:28:48.265Z,0.93
2018-07-02T20:31:19.258Z,0.70
2018-07-02T20:33:54.355Z,0.80
2018-07-02T20:36:30.028Z,1.00
2018-07-02T20:39:02.631Z,1.00
2018-07-02T20:41:37.568Z,1.00
2018-07-02T20:44:13.249Z,0.70
2018-07-02T20:46:44.351Z,1.00
2018-07-02T20:49:15.562Z,0.60
2018-07-02T20:51:50.644Z,0.63
2018-07-02T20:54:24.754Z,0.90
2018-07-02T20:56:55.795Z,0.67
2018-07-02T20:59:29.919Z,1.17
2018-07-02T21:02:04.151Z,0.60
2018-07-02T21:04:48.898Z,0.77
2018-07-02T21:07:27.855Z,0.90
2018-07-02T21:10:01.672Z,0.87
2018-07-02T21:12:37.492Z,0.60
2018-07-02T21:15:11.875Z,0.90
2018-07-02T21:17:48.665Z,0.73
2018-07-02T21:20:27.297Z,1.20
2018-07-02T21:26:44.767Z,1.30
2018-07-02T21:29:29.889Z,1.30
2018-07-02T21:32:16.732Z,1.30
2018-07-02T21:35:04.935Z,1.10
2018-07-02T21:37:55.062Z,0.87
2018-07-02T21:40:40.218Z,1.07
2018-07-02T21:43:16.090Z,0.90
2018-07-02T21:45:51.048Z,0.90
2018-07-02T21:48:23.844Z,0.83
2018-07-02T21:50:59.219Z,1.20
2018-07-02T21:53:34.917Z,0.80
2018-07-02T21:56:06.219Z,0.80
2018-07-02T21:58:40.723Z,1.33
2018-07-02T22:01:21.417Z,1.10
2018-07-02T22:03:57.663Z,1.00
2018-07-02T22:06:33.082Z,0.90
2018-07-02T22:09:11.489Z,1.40
2018-07-02T22:11:46.646Z,0.90
2018-07-02T22:14:22.628Z,0.93
2018-07-02T22:16:58.751Z,1.53
2018-07-02T22:19:32.339Z,1.03
2018-07-02T22:22:07.983Z,1.30
2018-07-02T22:24:42.821Z,0.97
2018-07-02T22:27:19.645Z,1.00
2018-07-02T22:29:55.279Z,0.83
2018-07-02T22:32:30.200Z,1.10
2018-07-02T22:35:03.585Z,0.90
2018-07-02T22:37:37.472Z,0.90
2018-07-02T22:40:11.328Z,1.13
2018-07-02T22:42:42.636Z,1.07
2018-07-02T22:45:18.233Z,1.27
2018-07-02T22:47:53.353Z,1.33
2018-07-02T22:50:25.846Z,1.00
2018-07-02T22:52:56.884Z,1.73
2018-07-02T22:55:29.046Z,1.23
2018-07-02T22:58:00.286Z,1.90
2018-07-02T23:00:31.381Z,1.53
2018-07-02T23:03:05.789Z,1.10
2018-07-02T23:05:37.012Z,1.00
2018-07-02T23:08:11.986Z,1.33
2018-07-02T23:10:46.996Z,1.67
2018-07-02T23:13:22.769Z,1.10
2018-07-02T23:16:03.566Z,1.40
2018-07-02T23:18:36.820Z,1.20
2018-07-02T23:21:12.083Z,1.37
2018-07-02T23:23:45.149Z,1.50
2018-07-02T23:26:19.271Z,2.07
2018-07-02T23:28:55.267Z,1.60
2018-07-02T23:31:28.856Z,1.57
2018-07-02T23:34:01.991Z,1.20
2018-07-02T23:36:33.310Z,1.60
2018-07-02T23:39:11.439Z,1.53
2018-07-02T23:41:44.403Z,1.57
2018-07-02T23:44:19.435Z,1.40
2018-07-02T23:46:54.374Z,1.60
2018-07-02T23:49:29.464Z,1.67
2018-07-02T23:52:04.310Z,2.67
2018-07-02T23:54:39.572Z,1.33
2018-07-02T23:57:13.787Z,1.80
2018-07-02T23:59:50.628Z,1.63
